Aneta, ND (58212)

2:11 PM CST on February 11, 2016 (GMT -0600)
Larimore | | Change Station
CLOSE
Current Station
Personal Weather Station
Location: Larimore, ND
Elevation: 1125 ft
Nearby Weather Stations

Elev 1125 ft 47.91 °N, 97.63 °W | Updated 1 second ago

Overcast
Overcast
18.5 °F
Feels Like 13 °F
N
3.7
Wind Variable Wind from WNW

Today
High -- | Low -- °F
--% Chance of Precip.
Yesterday
High -- | Low -- °F
Precip. -- in
Pressure 30.22 in
Visibility 10.0 miles
Clouds Few 1400 ft
Overcast 4000 ft
Windchill 13 °F
Dew Point 9 °F
Humidity 65%
Rainfall 0.00 in
Snow Depth Not available.
7:44 AM 5:47 PM
Waxing Crescent, 14% visible
SPECI KRDR 112001Z AUTO 29005KT 10SM -SN FEW014 OVC040 M10/M15 A3022 RMK AO2 SNB00
Pressure 30.22 in
Visibility 10.0 miles
Clouds Few 1400 ft
Overcast 4000 ft
Windchill 13 °F
Dew Point 9 °F
Humidity 65%
Rainfall 0.00 in
Snow Depth Not available.
7:44 AM 5:47 PM
Waxing Crescent, 14% visible
SPECI KRDR 112001Z AUTO 29005KT 10SM -SN FEW014 OVC040 M10/M15 A3022 RMK AO2 SNB00

10-Day Weather Forecast

Almanac

Astronomy

Feb. 11, 2016 Rise Set
Actual Time
Civil Twilight
Nautical Twilight
Astronomical Twilight
Moon
Length of Visible Light
Length of Day
Tomorrow will be .
, % of the Moon is Illuminated

Today's Extremes

State Highs State Lows

Community

WunderPhotos

Upload Photos

1,892,146 photos uploaded!

WunderBlog® & News

Nearby

Air Quality

  Air Quality AQ Index Pollutant
Not available.

Snow Depth

Station Depth Elevation

Earthquake Activity

City Distance Mag. Time & Date
Minimum magnitude displayed is 2.5.

Coastal Water Temperatures

Place Temperature

Stations

Nearby Weather Stations

Station Location Temp. Windchill Dew Point Humidity Wind Precip. Elev Updated Type
                   

Watches & Warnings

There are currently no watches in effect.